Time;durP1;ratioP1;P1;durP2;ratioP2;P2;SDS_P1;SDS_P2;PMS_P1;PMS_P2;Temp;Humidity;BMP_temperature;BMP_pressure;BME280_temperature;BME280_humidity;BME280_pressure;Samples;Min_cycle;Max_cycle;Signal;HPM_P1;HPM_P2
2022/11/18 00:01:05;;;;;;;;;;;;;;;6.50;100.00;99510.59;5036245;28;19929;-74
2022/11/18 00:03:30;;;;;;;;;;;;;;;6.45;100.00;99501.22;5033062;28;19917;-74
2022/11/18 00:05:56;;;;;;;;;;;;;;;6.43;100.00;99509.19;5046267;28;19990;-74
2022/11/18 00:08:22;;;;;;;;;;;;;;;6.42;100.00;99511.91;5032785;28;20398;-74
2022/11/18 00:10:47;;;;;;;;;;;;;;;6.42;100.00;99514.53;5046382;28;19935;-74
2022/11/18 00:16:04;;;;;;;;;;;;;;;6.37;100.00;99517.38;5046005;28;19925;-74
2022/11/18 00:18:29;;;;;;;;;;;;;;;6.36;100.00;99524.44;5013856;28;20302;-74
2022/11/18 00:20:55;;;;;;;;;;;;;;;6.34;100.00;99528.91;5024994;28;19964;-73
2022/11/18 00:23:20;;;;;;;;;;;;;;;6.31;100.00;99531.69;5043341;28;19994;-73
2022/11/18 00:25:45;;;;;;;;;;;;;;;6.30;100.00;99532.59;5045851;28;19932;-74
2022/11/18 00:28:11;;;;;;;;;;;;;;;6.28;100.00;99531.84;5029888;28;19940;-73
2022/11/18 00:30:36;;;;;;;;;;;;;;;6.26;100.00;99549.44;5026211;28;21375;-73
2022/11/18 00:33:01;;;;;;;;;;;;;;;6.23;100.00;99545.19;5045906;28;20027;-73
2022/11/18 00:35:27;;;;;;;;;;;;;;;6.23;100.00;99539.09;5045451;28;19977;-74
2022/11/18 00:37:52;;;;;;;;;;;;;;;6.21;100.00;99541.78;5044361;28;19987;-74
2022/11/18 00:40:18;;;;;;;;;;;;;;;6.22;100.00;99553.16;5045284;28;20067;-74
2022/11/18 00:42:52;;;;;;;;;;;;;;;6.20;100.00;99555.00;5025664;28;19967;-73
2022/11/18 00:45:19;;;;;;;;;;;;;;;6.17;100.00;99560.41;5045444;28;20472;-74
2022/11/18 00:47:44;;;;;;;;;;;;;;;6.13;100.00;99559.69;5043119;28;19935;-73
2022/11/18 00:50:09;;;;;;;;;;;;;;;6.08;100.00;99566.94;5035351;28;19928;-73
2022/11/18 00:52:35;;;;;;;;;;;;;;;6.05;100.00;99573.19;5019015;28;20658;-74
2022/11/18 00:55:00;;;;;;;;;;;;;;;6.01;100.00;99573.38;5045346;28;20595;-74
2022/11/18 00:57:26;;;;;;;;;;;;;;;5.97;100.00;99570.03;5029511;28;20686;-74
2022/11/18 00:59:51;;;;;;;;;;;;;;;5.95;100.00;99569.28;5045057;28;21586;-74
2022/11/18 01:02:16;;;;;;;;;;;;;;;5.95;100.00;99571.91;5042494;28;19936;-75
2022/11/18 01:04:42;;;;;;;;;;;;;;;5.93;100.00;99573.72;5024737;28;20562;-74
2022/11/18 01:07:07;;;;;;;;;;;;;;;5.89;100.00;99582.69;5044551;28;19939;-74
2022/11/18 01:09:32;;;;;;;;;;;;;;;5.83;100.00;99578.59;5044725;28;20638;-73
2022/11/18 01:14:42;;;;;;;;;;;;;;;5.76;100.00;99591.13;5042820;28;19951;-73
2022/11/18 01:17:07;;;;;;;;;;;;;;;5.77;100.00;99590.19;5045483;28;20368;-74
2022/11/18 01:19:33;;;;;;;;;;;;;;;5.78;100.00;99602.41;5044928;28;20426;-74
2022/11/18 01:22:02;;;;;;;;;;;;;;;5.78;100.00;99605.03;5044487;28;20656;-74
2022/11/18 01:24:30;;;;;;;;;;;;;;;5.77;100.00;99605.13;5044576;28;19932;-74
2022/11/18 01:26:56;;;;;;;;;;;;;;;5.75;100.00;99606.94;5031419;28;19950;-74
2022/11/18 01:29:21;;;;;;;;;;;;;;;5.73;100.00;99603.53;5044257;28;19932;-73
2022/11/18 01:31:47;;;;;;;;;;;;;;;5.72;100.00;99610.56;5044610;28;19939;-74
2022/11/18 01:34:12;;;;;;;;;;;;;;;5.70;100.00;99609.78;5044790;28;19929;-75
2022/11/18 01:36:37;;;;;;;;;;;;;;;5.68;100.00;99612.47;5044923;28;19929;-74
2022/11/18 01:39:03;;;;;;;;;;;;;;;5.67;100.00;99623.06;5044229;28;19955;-74
2022/11/18 01:41:28;;;;;;;;;;;;;;;5.66;100.00;99614.31;5018224;28;20556;-74
2022/11/18 01:43:54;;;;;;;;;;;;;;;5.66;100.00;99624.00;5030930;28;19936;-74
2022/11/18 01:46:20;;;;;;;;;;;;;;;5.66;100.00;99629.25;5044147;28;19933;-74
2022/11/18 01:48:45;;;;;;;;;;;;;;;5.64;100.00;99631.06;5058135;28;19932;-73
2022/11/18 01:51:12;;;;;;;;;;;;;;;5.63;100.00;99630.22;5030611;28;20300;-73
2022/11/18 01:53:39;;;;;;;;;;;;;;;5.61;100.00;99634.69;5028564;28;19928;-74
2022/11/18 01:56:11;;;;;;;;;;;;;;;5.64;100.00;99644.19;5013655;28;19929;-74
2022/11/18 01:58:36;;;;;;;;;;;;;;;5.65;100.00;99640.66;5043774;28;20333;-73
2022/11/18 02:01:02;;;;;;;;;;;;;;;5.66;100.00;99645.84;5025196;28;19929;-74
2022/11/18 02:03:28;;;;;;;;;;;;;;;5.68;100.00;99648.41;5025411;28;19924;-73
2022/11/18 02:05:53;;;;;;;;;;;;;;;5.72;100.00;99652.59;5028498;28;19943;-74
2022/11/18 02:08:19;;;;;;;;;;;;;;;5.74;100.00;99656.00;5028002;28;19925;-74
2022/11/18 02:10:44;;;;;;;;;;;;;;;5.77;100.00;99671.63;5028255;28;19925;-74
2022/11/18 02:13:10;;;;;;;;;;;;;;;5.80;100.00;99671.50;5043592;28;20001;-74
2022/11/18 02:15:50;;;;;;;;;;;;;;;5.83;100.00;99673.97;5044418;28;19940;-74
2022/11/18 02:18:27;;;;;;;;;;;;;;;5.87;100.00;99669.44;5028186;28;19992;-74
2022/11/18 02:20:54;;;;;;;;;;;;;;;5.91;100.00;99675.41;5028383;28;20423;-73
2022/11/18 02:23:46;;;;;;;;;;;;;;;5.95;100.00;99682.25;5027912;28;20387;-74
2022/11/18 02:26:21;;;;;;;;;;;;;;;5.99;100.00;99683.78;5032566;28;19925;-74
2022/11/18 02:28:46;;;;;;;;;;;;;;;6.02;100.00;99683.72;5043834;28;19982;-74
2022/11/18 02:31:17;;;;;;;;;;;;;;;6.03;100.00;99677.53;5043495;28;19928;-74
2022/11/18 02:33:45;;;;;;;;;;;;;;;6.06;100.00;99680.00;5041294;28;19933;-74
2022/11/18 02:36:12;;;;;;;;;;;;;;;6.08;100.00;99677.31;5028219;28;19933;-73
2022/11/18 02:38:42;;;;;;;;;;;;;;;6.13;100.00;99682.34;5029892;28;19960;-73
2022/11/18 02:41:08;;;;;;;;;;;;;;;6.14;100.00;99681.47;5040901;28;19928;-73
2022/11/18 02:43:35;;;;;;;;;;;;;;;6.15;100.00;99693.66;5030127;28;19924;-74
2022/11/18 02:46:01;;;;;;;;;;;;;;;6.17;100.00;99695.31;5027965;28;20517;-74
2022/11/18 02:48:27;;;;;;;;;;;;;;;6.19;100.00;99695.22;5040267;28;19929;-74
2022/11/18 02:50:53;;;;;;;;;;;;;;;6.21;100.00;99703.91;5030331;28;20359;-74
2022/11/18 02:53:19;;;;;;;;;;;;;;;6.22;100.00;99705.59;5044227;28;19923;-73
2022/11/18 02:55:44;;;;;;;;;;;;;;;6.23;100.00;99702.88;5043774;28;19931;-73
2022/11/18 02:58:09;;;;;;;;;;;;;;;6.26;100.00;99709.78;5016177;28;19925;-73
2022/11/18 03:00:35;;;;;;;;;;;;;;;6.27;100.00;99708.88;5029780;28;20391;-74
2022/11/18 03:03:00;;;;;;;;;;;;;;;6.29;100.00;99707.03;5047706;28;19971;-74
2022/11/18 03:05:45;;;;;;;;;;;;;;;6.30;100.00;99710.50;5031379;28;19940;-73
2022/11/18 03:08:12;;;;;;;;;;;;;;;6.32;100.00;99717.38;5044665;28;20296;-74
2022/11/18 03:10:39;;;;;;;;;;;;;;;6.32;100.00;99717.38;5047139;28;19948;-74
2022/11/18 03:13:16;;;;;;;;;;;;;;;6.33;100.00;99710.38;5031784;28;19981;-74
2022/11/18 03:15:54;;;;;;;;;;;;;;;6.32;100.00;99714.75;5027950;28;20034;-74
2022/11/18 03:18:26;;;;;;;;;;;;;;;6.35;100.00;99722.53;5044827;28;21549;-73
2022/11/18 03:20:52;;;;;;;;;;;;;;;6.35;100.00;99727.78;5044438;28;19936;-75
2022/11/18 03:23:31;;;;;;;;;;;;;;;6.36;100.00;99733.88;5014968;28;19929;-74
2022/11/18 03:26:00;;;;;;;;;;;;;;;6.36;100.00;99737.38;5032960;28;20427;-73
2022/11/18 03:28:36;;;;;;;;;;;;;;;6.37;100.00;99741.72;5046920;28;19935;-73
2022/11/18 03:31:05;;;;;;;;;;;;;;;6.38;100.00;99735.50;5033452;28;20028;-73
2022/11/18 03:33:36;;;;;;;;;;;;;;;6.38;100.00;99739.94;5031460;28;19924;-75
2022/11/18 03:36:03;;;;;;;;;;;;;;;6.38;100.00;99746.03;5030895;28;19968;-75
2022/11/18 03:38:29;;;;;;;;;;;;;;;6.39;100.00;99750.38;5020097;28;19924;-75
2022/11/18 03:40:55;;;;;;;;;;;;;;;6.40;100.00;99748.59;5030974;28;21467;-75
2022/11/18 03:43:24;;;;;;;;;;;;;;;6.38;100.00;99751.28;5033547;28;20541;-74
2022/11/18 03:45:54;;;;;;;;;;;;;;;6.39;100.00;99750.38;5033455;28;19929;-74
2022/11/18 03:48:21;;;;;;;;;;;;;;;6.41;100.00;99752.06;5030752;28;19924;-74
2022/11/18 03:50:51;;;;;;;;;;;;;;;6.39;100.00;99753.00;5043957;28;19931;-74
2022/11/18 03:53:17;;;;;;;;;;;;;;;6.37;100.00;99762.75;5031450;28;19935;-73
2022/11/18 03:55:43;;;;;;;;;;;;;;;6.37;100.00;99762.75;5046164;28;19928;-74
2022/11/18 03:58:16;;;;;;;;;;;;;;;6.35;100.00;99769.84;5033026;28;19929;-74
2022/11/18 04:00:42;;;;;;;;;;;;;;;6.35;100.00;99769.84;5031138;28;19994;-74
2022/11/18 04:03:08;;;;;;;;;;;;;;;6.36;100.00;99770.69;5043918;28;19935;-74
2022/11/18 04:05:35;;;;;;;;;;;;;;;6.35;100.00;99775.09;5046188;28;19932;-74
2022/11/18 04:08:01;;;;;;;;;;;;;;;6.36;100.00;99776.81;5032926;28;20342;-74
2022/11/18 04:10:28;;;;;;;;;;;;;;;6.36;100.00;99779.44;5046622;28;20663;-74
2022/11/18 04:12:54;;;;;;;;;;;;;;;6.35;100.00;99785.63;5042398;28;19982;-74
2022/11/18 04:15:19;;;;;;;;;;;;;;;6.35;100.00;99783.00;5046568;28;20338;-75
2022/11/18 04:17:45;;;;;;;;;;;;;;;6.36;100.00;99789.97;5030262;28;20338;-74
2022/11/18 04:20:17;;;;;;;;;;;;;;;6.37;100.00;99788.16;5045940;28;19973;-74
2022/11/18 04:22:43;;;;;;;;;;;;;;;6.37;100.00;99796.03;5030318;28;20349;-74
2022/11/18 04:25:08;;;;;;;;;;;;;;;6.37;100.00;99793.41;5046190;28;19937;-74
2022/11/18 04:27:34;;;;;;;;;;;;;;;6.36;100.00;99797.84;5045566;28;19935;-74
2022/11/18 04:29:59;;;;;;;;;;;;;;;6.37;100.00;99793.41;5045795;28;20318;-74
2022/11/18 04:32:24;;;;;;;;;;;;;;;6.37;100.00;99799.53;5045926;28;19964;-74
2022/11/18 04:34:50;;;;;;;;;;;;;;;6.36;100.00;99803.09;5045782;28;20011;-74
2022/11/18 04:37:15;;;;;;;;;;;;;;;6.36;100.00;99813.63;5045648;28;21613;-75
2022/11/18 04:39:40;;;;;;;;;;;;;;;6.35;100.00;99811.91;5045895;28;19924;-74
2022/11/18 04:42:06;;;;;;;;;;;;;;;6.36;100.00;99818.88;5041121;28;19999;-74
2022/11/18 04:44:32;;;;;;;;;;;;;;;6.37;100.00;99815.31;5015454;28;19935;-75
2022/11/18 04:46:58;;;;;;;;;;;;;;;6.37;100.00;99820.56;5042995;28;19924;-74
2022/11/18 04:49:23;;;;;;;;;;;;;;;6.37;100.00;99825.84;5031907;28;19928;-74
2022/11/18 04:51:49;;;;;;;;;;;;;;;6.35;100.00;99825.06;5032245;28;19935;-74
2022/11/18 04:54:14;;;;;;;;;;;;;;;6.35;100.00;99832.94;5030043;28;19929;-74
2022/11/18 04:56:40;;;;;;;;;;;;;;;6.33;100.00;99834.75;5031856;28;19992;-74
2022/11/18 04:59:05;;;;;;;;;;;;;;;6.34;100.00;99839.13;5045317;28;19929;-75
2022/11/18 05:01:31;;;;;;;;;;;;;;;6.34;100.00;99836.50;5013516;28;19928;-74
2022/11/18 05:03:56;;;;;;;;;;;;;;;6.32;100.00;99843.56;5045104;28;20076;-74
2022/11/18 05:06:22;;;;;;;;;;;;;;;6.29;100.00;99843.72;5045260;28;20387;-74
2022/11/18 05:08:47;;;;;;;;;;;;;;;6.27;100.00;99840.31;5029072;28;19921;-74
2022/11/18 05:13:57;;;;;;;;;;;;;;;6.25;100.00;99850.03;5045111;28;20035;-74
2022/11/18 05:16:22;;;;;;;;;;;;;;;6.24;100.00;99856.22;5042578;28;19925;-74
2022/11/18 05:18:48;;;;;;;;;;;;;;;6.23;100.00;99855.34;5044594;28;20020;-74
2022/11/18 05:21:13;;;;;;;;;;;;;;;6.23;100.00;99857.97;5044891;28;19928;-74
2022/11/18 05:23:39;;;;;;;;;;;;;;;6.23;100.00;99867.66;5044666;28;19952;-74
2022/11/18 05:26:04;;;;;;;;;;;;;;;6.21;100.00;99859.81;5044859;28;19931;-74
2022/11/18 05:28:30;;;;;;;;;;;;;;;6.22;100.00;99871.19;5059002;28;19935;-74
2022/11/18 05:30:55;;;;;;;;;;;;;;;6.21;100.00;99870.34;5044769;28;19928;-74
2022/11/18 05:33:20;;;;;;;;;;;;;;;6.21;100.00;99883.47;5058434;28;19987;-74
2022/11/18 05:35:46;;;;;;;;;;;;;;;6.21;100.00;99880.00;5044656;28;19933;-74
2022/11/18 05:38:11;;;;;;;;;;;;;;;6.20;100.00;99881.78;5045152;28;20402;-74
2022/11/18 05:40:37;;;;;;;;;;;;;;;6.20;100.00;99880.91;5044458;28;19982;-74
2022/11/18 05:43:11;;;;;;;;;;;;;;;6.21;100.00;99887.91;5024903;28;19968;-74
2022/11/18 05:45:37;;;;;;;;;;;;;;;6.20;100.00;99888.78;5029609;28;19940;-74
2022/11/18 05:48:03;;;;;;;;;;;;;;;6.21;100.00;99882.63;5044127;28;20454;-74
2022/11/18 05:50:29;;;;;;;;;;;;;;;6.21;100.00;99885.28;5044744;28;20383;-74
2022/11/18 05:52:54;;;;;;;;;;;;;;;6.20;100.00;99888.78;5028690;28;19993;-74
2022/11/18 05:55:20;;;;;;;;;;;;;;;6.19;100.00;99885.31;5029197;28;19929;-74
2022/11/18 05:57:45;;;;;;;;;;;;;;;6.18;100.00;99901.16;5025000;28;20091;-74
2022/11/18 06:00:11;;;;;;;;;;;;;;;6.17;100.00;99904.72;5044540;28;20401;-74
2022/11/18 06:02:39;;;;;;;;;;;;;;;6.15;100.00;99907.38;5043743;28;19936;-74
2022/11/18 06:05:05;;;;;;;;;;;;;;;6.13;100.00;99906.59;5044001;28;19929;-74
2022/11/18 06:07:37;;;;;;;;;;;;;;;6.11;100.00;99911.91;5044176;28;19935;-74
2022/11/18 06:10:03;;;;;;;;;;;;;;;6.09;100.00;99916.41;5022080;28;19928;-74
2022/11/18 06:12:29;;;;;;;;;;;;;;;6.07;100.00;99917.38;5028747;28;19936;-74
2022/11/18 06:14:59;;;;;;;;;;;;;;;6.06;100.00;99915.66;5028597;28;20416;-74
2022/11/18 06:17:30;;;;;;;;;;;;;;;6.05;100.00;99922.69;5043629;28;19936;-74
2022/11/18 06:19:55;;;;;;;;;;;;;;;6.04;100.00;99928.03;5043993;28;19930;-74
2022/11/18 06:22:21;;;;;;;;;;;;;;;6.04;100.00;99931.50;5041494;28;19924;-74
2022/11/18 06:24:46;;;;;;;;;;;;;;;6.04;100.00;99942.00;5040394;28;19975;-74
2022/11/18 06:27:11;;;;;;;;;;;;;;;6.03;100.00;99932.41;5044236;28;20076;-74
2022/11/18 06:29:37;;;;;;;;;;;;;;;6.04;100.00;99942.00;5044165;28;20062;-74
2022/11/18 06:32:02;;;;;;;;;;;;;;;6.04;100.00;99943.78;5023955;28;19936;-74
2022/11/18 06:34:27;;;;;;;;;;;;;;;6.04;100.00;99949.88;5043912;28;20411;-74
2022/11/18 06:36:53;;;;;;;;;;;;;;;6.05;100.00;99956.00;5047464;28;19926;-74
2022/11/18 06:39:18;;;;;;;;;;;;;;;6.05;100.00;99962.09;5044884;28;19935;-74
2022/11/18 06:41:43;;;;;;;;;;;;;;;6.05;100.00;99964.72;5047655;28;19988;-74
2022/11/18 06:44:12;;;;;;;;;;;;;;;6.05;100.00;99971.78;5048393;28;19974;-74
2022/11/18 06:46:56;;;;;;;;;;;;;;;6.04;100.00;99968.28;5047091;28;20000;-74
2022/11/18 06:49:25;;;;;;;;;;;;;;;6.02;100.00;99978.00;5048311;28;19924;-74
2022/11/18 06:51:50;;;;;;;;;;;;;;;6.02;100.00;99982.38;5047278;28;19924;-74
2022/11/18 06:54:16;;;;;;;;;;;;;;;6.02;100.00;99978.00;5044435;28;20657;-74
2022/11/18 06:56:41;;;;;;;;;;;;;;;6.01;100.00;99986.78;5032543;28;20749;-74
2022/11/18 06:59:06;;;;;;;;;;;;;;;6.00;100.00;99984.22;5047829;28;19928;-74
2022/11/18 07:01:37;;;;;;;;;;;;;;;5.99;100.00;99991.22;5046976;28;20464;-74
2022/11/18 07:04:03;;;;;;;;;;;;;;;6.01;100.00;100004.31;5047553;28;20030;-74
2022/11/18 07:06:29;;;;;;;;;;;;;;;6.00;100.00;100006.09;5028101;28;19932;-74
2022/11/18 07:08:55;;;;;;;;;;;;;;;6.00;100.00;100006.09;5031504;28;21420;-74
2022/11/18 07:11:22;;;;;;;;;;;;;;;6.01;100.00;100012.19;5021041;28;19959;-75
2022/11/18 07:13:49;;;;;;;;;;;;;;;6.02;100.00;100021.78;5027932;28;19960;-74
2022/11/18 07:16:25;;;;;;;;;;;;;;;6.01;100.00;100025.31;5047072;28;19936;-74
2022/11/18 07:18:50;;;;;;;;;;;;;;;6.01;100.00;100022.69;5047581;28;19928;-74
2022/11/18 07:21:17;;;;;;;;;;;;;;;6.00;100.00;100027.13;5047113;28;19977;-75
2022/11/18 07:23:42;;;;;;;;;;;;;;;6.00;100.00;100029.75;5031424;28;20336;-73
2022/11/18 07:26:08;;;;;;;;;;;;;;;5.99;100.00;100035.88;5046672;28;20218;-74
2022/11/18 07:28:33;;;;;;;;;;;;;;;5.98;100.00;100035.06;5047169;28;20613;-74
2022/11/18 07:30:59;;;;;;;;;;;;;;;6.00;100.00;100037.63;5046191;28;19928;-74
2022/11/18 07:33:25;;;;;;;;;;;;;;;5.98;100.00;100044.69;5014762;28;19928;-74
2022/11/18 07:35:50;;;;;;;;;;;;;;;5.97;100.00;100046.50;5047068;28;20022;-74
2022/11/18 07:38:15;;;;;;;;;;;;;;;5.96;100.00;100051.78;5046711;28;19932;-74
2022/11/18 07:40:41;;;;;;;;;;;;;;;5.97;100.00;100057.00;5046847;28;19937;-74
2022/11/18 07:43:07;;;;;;;;;;;;;;;5.98;100.00;100055.22;5047134;28;19932;-74
2022/11/18 07:45:32;;;;;;;;;;;;;;;5.97;100.00;100064.00;5046192;28;20378;-74
2022/11/18 07:47:58;;;;;;;;;;;;;;;5.95;100.00;100063.22;5032689;28;19929;-74
2022/11/18 07:50:24;;;;;;;;;;;;;;;5.96;100.00;100072.81;5046536;28;19940;-74
2022/11/18 07:52:49;;;;;;;;;;;;;;;5.95;100.00;100074.56;5036710;28;20387;-74
2022/11/18 07:55:14;;;;;;;;;;;;;;;5.95;100.00;100079.00;5046587;28;19929;-74
2022/11/18 07:57:40;;;;;;;;;;;;;;;5.93;100.00;100080.78;5047504;28;19917;-73
2022/11/18 08:00:05;;;;;;;;;;;;;;;5.91;100.00;100085.25;5030536;28;20228;-74
2022/11/18 08:02:31;;;;;;;;;;;;;;;5.89;100.00;100087.94;5046416;28;19932;-75
2022/11/18 08:04:56;;;;;;;;;;;;;;;5.88;100.00;100095.91;5030799;28;19928;-74
2022/11/18 08:07:22;;;;;;;;;;;;;;;5.88;100.00;100106.41;5030974;28;19924;-74
2022/11/18 08:09:47;;;;;;;;;;;;;;;5.88;100.00;100101.16;5045972;28;20047;-74
2022/11/18 08:12:12;;;;;;;;;;;;;;;5.88;100.00;100112.50;5045915;28;20366;-74
2022/11/18 08:14:38;;;;;;;;;;;;;;;5.89;100.00;100116.00;5046392;28;19932;-75
2022/11/18 08:17:03;;;;;;;;;;;;;;;5.90;100.00;100115.09;5046163;28;19929;-74
2022/11/18 08:19:28;;;;;;;;;;;;;;;5.89;100.00;100118.63;5046375;28;19933;-74
2022/11/18 08:21:54;;;;;;;;;;;;;;;5.88;100.00;100122.19;5045993;28;19928;-74
2022/11/18 08:24:19;;;;;;;;;;;;;;;5.87;100.00;100120.47;5030493;28;19939;-74
2022/11/18 08:26:45;;;;;;;;;;;;;;;5.85;100.00;100120.50;5030440;28;19998;-74
2022/11/18 08:29:10;;;;;;;;;;;;;;;5.84;100.00;100129.31;5046091;28;20407;-74
2022/11/18 08:31:35;;;;;;;;;;;;;;;5.84;100.00;100137.19;5045708;28;20372;-74
2022/11/18 08:34:02;;;;;;;;;;;;;;;5.83;100.00;100131.06;5030363;28;19929;-74
2022/11/18 08:36:29;;;;;;;;;;;;;;;5.80;100.00;100130.34;5045928;28;19959;-74
2022/11/18 08:38:55;;;;;;;;;;;;;;;5.80;100.00;100139.09;5024976;28;19936;-74
2022/11/18 08:41:40;;;;;;;;;;;;;;;5.78;100.00;100133.00;5042516;28;19974;-74
2022/11/18 08:44:06;;;;;;;;;;;;;;;5.76;100.00;100133.97;5032772;28;20364;-76
2022/11/18 08:46:31;;;;;;;;;;;;;;;5.76;100.00;100137.47;5046533;28;19928;-76
2022/11/18 08:48:57;;;;;;;;;;;;;;;5.75;100.00;100143.63;5046075;28;19928;-79
2022/11/18 08:51:22;;;;;;;;;;;;;;;5.74;100.00;100136.69;5030914;28;19924;-80
2022/11/18 08:53:48;;;;;;;;;;;;;;;5.73;100.00;100144.59;5029283;28;19933;-77
2022/11/18 08:56:14;;;;;;;;;;;;;;;5.73;100.00;100144.59;5043463;28;20410;-76
2022/11/18 08:58:40;;;;;;;;;;;;;;;5.74;100.00;100149.81;5029631;28;20694;-76
2022/11/18 09:01:06;;;;;;;;;;;;;;;5.74;100.00;100159.44;5030606;28;19924;-77
2022/11/18 09:03:31;;;;;;;;;;;;;;;5.74;100.00;100159.44;5045918;28;20011;-77
2022/11/18 09:06:06;;;;;;;;;;;;;;;5.73;100.00;100166.50;5046508;28;20062;-76
2022/11/18 09:08:32;;;;;;;;;;;;;;;5.72;100.00;100159.50;5046586;28;19976;-77
2022/11/18 09:10:57;;;;;;;;;;;;;;;5.74;100.00;100164.69;5046302;28;20482;-76
2022/11/18 09:13:23;;;;;;;;;;;;;;;5.75;100.00;100164.66;5046790;28;19928;-77
2022/11/18 09:15:48;;;;;;;;;;;;;;;5.73;100.00;100173.50;5046288;28;19929;-77
2022/11/18 09:18:14;;;;;;;;;;;;;;;5.73;100.00;100178.75;5060039;28;19967;-77
2022/11/18 09:20:39;;;;;;;;;;;;;;;5.70;100.00;100184.97;5046094;28;20121;-76
2022/11/18 09:23:05;;;;;;;;;;;;;;;5.70;100.00;100190.22;5042864;28;19932;-76
2022/11/18 09:25:30;;;;;;;;;;;;;;;5.71;100.00;100189.31;5042498;28;20055;-76
2022/11/18 09:27:55;;;;;;;;;;;;;;;5.70;100.00;100195.47;5025097;28;19928;-76
2022/11/18 09:30:21;;;;;;;;;;;;;;;5.69;100.00;100201.66;5026106;28;19942;-76
2022/11/18 09:32:47;;;;;;;;;;;;;;;5.67;100.00;100199.06;5029331;28;19929;-76
2022/11/18 09:35:13;;;;;;;;;;;;;;;5.69;100.00;100210.41;5029586;28;20155;-76
2022/11/18 09:37:38;;;;;;;;;;;;;;;5.68;100.00;100205.19;5043193;28;20053;-76
2022/11/18 09:40:04;;;;;;;;;;;;;;;5.69;100.00;100215.66;5025099;28;20288;-76
2022/11/18 09:42:38;;;;;;;;;;;;;;;5.70;100.00;100214.72;5044319;28;19939;-76
2022/11/18 09:45:07;;;;;;;;;;;;;;;5.71;100.00;100226.94;5044700;28;19971;-76
2022/11/18 09:47:33;;;;;;;;;;;;;;;5.76;100.00;100223.28;5041753;28;19938;-76
2022/11/18 09:50:03;;;;;;;;;;;;;;;5.78;100.00;100227.56;5001625;28;19982;-76
2022/11/18 09:52:32;;;;;;;;;;;;;;;5.79;100.00;100224.06;5028721;28;19986;-76
2022/11/18 09:54:58;;;;;;;;;;;;;;;5.81;100.00;100230.13;5029568;28;19934;-77
2022/11/18 09:57:35;;;;;;;;;;;;;;;5.82;100.00;100230.94;5024757;28;19929;-76
2022/11/18 10:00:01;;;;;;;;;;;;;;;5.84;100.00;100237.88;5014734;28;21511;-77
2022/11/18 10:02:26;;;;;;;;;;;;;;;5.84;100.00;100237.88;5025063;28;19933;-76
2022/11/18 10:04:53;;;;;;;;;;;;;;;5.84;100.00;100252.78;5044141;28;20429;-76
2022/11/18 10:07:26;;;;;;;;;;;;;;;5.83;100.00;100257.19;5025500;28;19931;-76
2022/11/18 10:09:51;;;;;;;;;;;;;;;5.80;100.00;100251.16;5029597;28;19986;-76
2022/11/18 10:12:43;;;;;;;;;;;;;;;5.78;100.00;100255.63;5028698;28;22152;-76
2022/11/18 10:15:08;;;;;;;;;;;;;;;5.78;100.00;100253.00;5030965;28;19925;-76
2022/11/18 10:17:38;;;;;;;;;;;;;;;5.78;100.00;100255.63;5044983;28;19947;-76
2022/11/18 10:20:09;;;;;;;;;;;;;;;5.80;100.00;100248.53;5029222;28;19929;-76
2022/11/18 10:22:38;;;;;;;;;;;;;;;5.80;100.00;100262.56;5043996;28;19932;-76
2022/11/18 10:25:06;;;;;;;;;;;;;;;5.81;100.00;100263.41;5042078;28;20355;-76
2022/11/18 10:27:34;;;;;;;;;;;;;;;5.80;100.00;100264.31;5041375;28;19963;-76
2022/11/18 10:29:59;;;;;;;;;;;;;;;5.81;100.00;100266.88;5044993;28;20380;-76
2022/11/18 10:32:25;;;;;;;;;;;;;;;5.78;100.00;100266.97;5044482;28;20015;-77
2022/11/18 10:34:54;;;;;;;;;;;;;;;5.81;100.00;100272.16;5043948;28;19933;-76
2022/11/18 10:37:27;;;;;;;;;;;;;;;5.82;100.00;100272.97;5029194;28;20316;-76
2022/11/18 10:39:53;;;;;;;;;;;;;;;5.82;100.00;100276.47;5028317;28;20548;-76
2022/11/18 10:42:28;;;;;;;;;;;;;;;5.81;100.00;100277.41;5030124;28;19929;-76
2022/11/18 10:44:54;;;;;;;;;;;;;;;5.80;100.00;100283.56;5028132;28;19925;-76
2022/11/18 10:47:25;;;;;;;;;;;;;;;5.77;100.00;100278.41;5044795;28;20784;-76
2022/11/18 10:49:54;;;;;;;;;;;;;;;5.80;100.00;100283.56;5046407;28;19977;-76
2022/11/18 10:52:20;;;;;;;;;;;;;;;5.81;100.00;100287.91;5025406;28;19928;-77
2022/11/18 10:54:46;;;;;;;;;;;;;;;5.82;100.00;100294.88;5031321;28;20506;-76
2022/11/18 10:57:19;;;;;;;;;;;;;;;5.83;100.00;100295.75;5028697;28;19928;-76
2022/11/18 10:59:49;;;;;;;;;;;;;;;5.85;100.00;100297.38;5027083;28;20016;-76
2022/11/18 11:02:16;;;;;;;;;;;;;;;5.87;100.00;100292.09;4998005;28;20020;-74
2022/11/18 11:04:42;;;;;;;;;;;;;;;5.88;100.00;100290.31;5037247;28;19986;-73
2022/11/18 11:07:14;;;;;;;;;;;;;;;5.85;100.00;100297.38;5023625;28;20025;-74
2022/11/18 11:09:39;;;;;;;;;;;;;;;5.85;100.00;100297.38;5041149;28;20755;-74
2022/11/18 11:12:12;;;;;;;;;;;;;;;5.84;100.00;100300.91;5008965;28;19943;-74
2022/11/18 11:14:49;;;;;;;;;;;;;;;5.84;100.00;100305.34;5020956;28;19992;-74
2022/11/18 11:17:25;;;;;;;;;;;;;;;5.83;100.00;100306.25;5036045;28;19928;-73
2022/11/18 11:20:01;;;;;;;;;;;;;;;5.78;100.00;100293.25;5018985;28;19951;-73
2022/11/18 11:22:27;;;;;;;;;;;;;;;5.80;100.00;100304.59;5012712;28;19928;-75
2022/11/18 11:24:52;;;;;;;;;;;;;;;5.77;100.00;100309.94;5041364;28;20557;-75
2022/11/18 11:27:37;;;;;;;;;;;;;;;5.80;100.00;100322.97;5041609;28;19928;-73
2022/11/18 11:30:14;;;;;;;;;;;;;;;5.76;100.00;100318.72;5024549;28;19920;-73
2022/11/18 11:32:43;;;;;;;;;;;;;;;5.77;100.00;100330.94;5024849;28;19925;-73
2022/11/18 11:35:14;;;;;;;;;;;;;;;5.77;100.00;100325.69;5043139;28;19925;-73
2022/11/18 11:38:08;;;;;;;;;;;;;;;5.82;100.00;100325.53;5038603;28;20043;-74
2022/11/18 11:40:36;;;;;;;;;;;;;;;5.81;100.00;100321.19;5041346;28;19925;-74
2022/11/18 11:43:14;;;;;;;;;;;;;;;5.84;100.00;100328.97;5037550;28;20839;-74
2022/11/18 11:45:46;;;;;;;;;;;;;;;5.87;100.00;100330.66;5043811;28;19928;-74
2022/11/18 11:48:15;;;;;;;;;;;;;;;5.85;100.00;100325.44;5023383;28;20181;-74
2022/11/18 11:50:54;;;;;;;;;;;;;;;5.84;100.00;100336.88;5045061;28;20753;-74
2022/11/18 11:53:23;;;;;;;;;;;;;;;5.82;100.00;100341.28;5043515;28;20050;-74
2022/11/18 11:55:49;;;;;;;;;;;;;;;5.76;100.00;100336.25;5039848;28;19928;-73
2022/11/18 11:58:30;;;;;;;;;;;;;;;5.73;100.00;100347.75;5041385;28;19940;-73
2022/11/18 12:01:21;;;;;;;;;;;;;;;5.70;100.00;100343.44;5044784;28;19981;-73
2022/11/18 12:03:51;;;;;;;;;;;;;;;5.68;100.00;100349.66;4998924;28;19969;-74
2022/11/18 12:06:17;;;;;;;;;;;;;;;5.63;100.00;100343.69;5040811;28;19928;-74
2022/11/18 12:08:48;;;;;;;;;;;;;;;5.58;100.00;100347.31;5025945;28;19929;-73
2022/11/18 12:11:20;;;;;;;;;;;;;;;5.55;100.00;100341.28;5010633;28;19935;-74
2022/11/18 12:14:09;;;;;;;;;;;;;;;5.56;100.00;100348.28;5014071;28;19932;-73
2022/11/18 12:16:44;;;;;;;;;;;;;;;5.57;100.00;100353.47;5038024;28;20051;-73
2022/11/18 12:19:16;;;;;;;;;;;;;;;5.56;100.00;100354.38;5044575;28;20124;-74
2022/11/18 12:21:48;;;;;;;;;;;;;;;5.58;100.00;100347.31;5027848;28;19924;-73
2022/11/18 12:24:17;;;;;;;;;;;;;;;5.57;100.00;100356.09;5043716;28;19925;-74
2022/11/18 12:26:45;;;;;;;;;;;;;;;5.55;100.00;100357.91;5040817;28;19924;-73
2022/11/18 12:29:34;;;;;;;;;;;;;;;5.50;100.00;100357.19;5026637;28;19920;-72
2022/11/18 12:32:03;;;;;;;;;;;;;;;5.48;100.00;100356.41;5024068;28;20367;-82
2022/11/18 12:34:30;;;;;;;;;;;;;;;5.49;100.00;100362.53;5024634;28;20046;-74
2022/11/18 12:36:55;;;;;;;;;;;;;;;5.51;100.00;100365.94;5026588;28;19928;-75
2022/11/18 12:39:27;;;;;;;;;;;;;;;5.52;100.00;100376.41;5023052;28;19971;-75
2022/11/18 12:44:38;;;;;;;;;;;;;;;5.52;100.00;100384.28;5042588;28;20322;-73
2022/11/18 12:47:04;;;;;;;;;;;;;;;5.48;100.00;100395.78;5025803;28;20466;-73
2022/11/18 12:49:30;;;;;;;;;;;;;;;5.42;100.00;100388.09;5043495;28;20068;-74
2022/11/18 12:51:55;;;;;;;;;;;;;;;5.39;100.00;100394.31;5043734;28;20263;-73
2022/11/18 12:54:25;;;;;;;;;;;;;;;5.38;100.00;100396.97;5025319;28;20903;-74
2022/11/18 12:56:51;;;;;;;;;;;;;;;5.34;100.00;100395.34;5043156;28;19929;-74